Maimara, Argentina
Current Conditions -  °F | °C
As of 3:00 AM on Saturday 29 Nov 2014 (Local Time) from SASJ Reporting Station
Broken Clouds Broken Clouds  
Wind Chill: 23°   Ceiling: 10000
Heat Index: 23°   Visibility: 6mi
Dew Point: 19°   Wind: 3mph
Humidity: 78%   Direction: 320°NW
Pressure: 29.77"   Gusts: NA
Location:  23.62°S, 65.4°W
Report Text: SASJ 290600Z 32003KT 9999 SCT025 BKN10023/19 Q1008
Loading
Personal Weather Stations






























Interactive Weather Map New forecast layout! Learn more

10-Day Weather Forecast

Advertisements
Track Severe Weather on mobile